sensor_id;sensor_type;location;lat;lon;timestamp;noise_LAeq;noise_LA_min;noise_LA_max;noise_LA01;noise_LA95
76382;Laerm;65202;52.520;10.528;2023-06-24T00:02:22;39.84;32.41;55.56;;
76382;Laerm;65202;52.520;10.528;2023-06-24T00:04:51;39.47;32.57;53.03;;
76382;Laerm;65202;52.520;10.528;2023-06-24T00:07:21;39.60;33.03;52.83;;
76382;Laerm;65202;52.520;10.528;2023-06-24T00:09:49;39.51;32.32;52.42;;
76382;Laerm;65202;52.520;10.528;2023-06-24T00:12:17;39.67;32.68;53.26;;
76382;Laerm;65202;52.520;10.528;2023-06-24T00:14:47;40.31;33.48;53.40;;
76382;Laerm;65202;52.520;10.528;2023-06-24T00:17:14;39.54;33.26;53.56;;
76382;Laerm;65202;52.520;10.528;2023-06-24T00:19:42;39.55;32.99;53.03;;
76382;Laerm;65202;52.520;10.528;2023-06-24T00:22:11;40.32;32.57;52.72;;
76382;Laerm;65202;52.520;10.528;2023-06-24T00:24:41;39.64;32.76;54.48;;
76382;Laerm;65202;52.520;10.528;2023-06-24T00:27:14;39.40;33.02;54.18;;
76382;Laerm;65202;52.520;10.528;2023-06-24T00:29:41;45.74;32.40;62.24;;
76382;Laerm;65202;52.520;10.528;2023-06-24T00:32:09;39.46;32.55;53.35;;
76382;Laerm;65202;52.520;10.528;2023-06-24T00:34:36;39.98;32.54;53.80;;
76382;Laerm;65202;52.520;10.528;2023-06-24T00:37:06;39.45;33.00;53.82;;
76382;Laerm;65202;52.520;10.528;2023-06-24T00:39:33;39.61;33.03;53.73;;
76382;Laerm;65202;52.520;10.528;2023-06-24T00:42:01;39.57;32.78;54.28;;
76382;Laerm;65202;52.520;10.528;2023-06-24T00:44:28;39.46;32.65;53.91;;
76382;Laerm;65202;52.520;10.528;2023-06-24T00:46:55;39.99;33.09;55.20;;
76382;Laerm;65202;52.520;10.528;2023-06-24T00:49:23;40.28;32.97;54.08;;
76382;Laerm;65202;52.520;10.528;2023-06-24T00:51:50;39.76;33.05;53.29;;
76382;Laerm;65202;52.520;10.528;2023-06-24T00:54:18;39.62;33.15;53.44;;
76382;Laerm;65202;52.520;10.528;2023-06-24T00:56:46;39.39;32.38;53.68;;
76382;Laerm;65202;52.520;10.528;2023-06-24T00:59:15;39.31;32.60;53.63;;
76382;Laerm;65202;52.520;10.528;2023-06-24T01:01:44;39.68;32.36;54.82;;
76382;Laerm;65202;52.520;10.528;2023-06-24T01:04:13;40.45;34.13;55.24;;
76382;Laerm;65202;52.520;10.528;2023-06-24T01:06:40;39.71;33.02;53.13;;
76382;Laerm;65202;52.520;10.528;2023-06-24T01:09:12;39.61;32.57;54.21;;
76382;Laerm;65202;52.520;10.528;2023-06-24T01:11:40;39.58;32.64;53.70;;
76382;Laerm;65202;52.520;10.528;2023-06-24T01:14:08;39.60;32.61;55.35;;
76382;Laerm;65202;52.520;10.528;2023-06-24T01:16:56;39.38;33.02;54.32;;
76382;Laerm;65202;52.520;10.528;2023-06-24T01:20:09;39.68;33.12;53.24;;
76382;Laerm;65202;52.520;10.528;2023-06-24T01:23:24;39.14;32.58;54.88;;
76382;Laerm;65202;52.520;10.528;2023-06-24T01:26:32;39.45;32.86;54.78;;
76382;Laerm;65202;52.520;10.528;2023-06-24T01:29:31;39.24;33.03;54.51;;
76382;Laerm;65202;52.520;10.528;2023-06-24T01:32:19;40.09;33.70;54.57;;
76382;Laerm;65202;52.520;10.528;2023-06-24T01:35:02;39.47;33.01;54.35;;
76382;Laerm;65202;52.520;10.528;2023-06-24T01:42:39;40.24;32.90;53.09;;
76382;Laerm;65202;52.520;10.528;2023-06-24T01:45:14;40.46;33.25;54.91;;
76382;Laerm;65202;52.520;10.528;2023-06-24T01:47:46;42.40;33.20;61.37;;
76382;Laerm;65202;52.520;10.528;2023-06-24T01:50:19;48.85;33.83;73.44;;
76382;Laerm;65202;52.520;10.528;2023-06-24T01:52:50;44.60;34.25;57.71;;
76382;Laerm;65202;52.520;10.528;2023-06-24T01:55:21;46.20;34.52;57.72;;
76382;Laerm;65202;52.520;10.528;2023-06-24T01:57:51;48.19;34.67;63.94;;
76382;Laerm;65202;52.520;10.528;2023-06-24T02:00:19;46.50;34.78;62.03;;
76382;Laerm;65202;52.520;10.528;2023-06-24T02:02:50;51.39;35.12;68.08;;
76382;Laerm;65202;52.520;10.528;2023-06-24T02:05:20;51.66;34.65;67.88;;
76382;Laerm;65202;52.520;10.528;2023-06-24T02:07:50;51.77;36.14;69.40;;
76382;Laerm;65202;52.520;10.528;2023-06-24T02:10:20;51.91;35.54;69.55;;
76382;Laerm;65202;52.520;10.528;2023-06-24T02:12:51;49.31;36.23;65.90;;
76382;Laerm;65202;52.520;10.528;2023-06-24T02:15:22;46.38;34.87;61.99;;
76382;Laerm;65202;52.520;10.528;2023-06-24T02:17:52;51.89;35.31;67.60;;
76382;Laerm;65202;52.520;10.528;2023-06-24T02:20:25;50.45;35.60;67.18;;
76382;Laerm;65202;52.520;10.528;2023-06-24T02:22:58;44.92;35.07;56.85;;
76382;Laerm;65202;52.520;10.528;2023-06-24T02:25:27;49.47;36.02;66.56;;
76382;Laerm;65202;52.520;10.528;2023-06-24T02:27:55;45.51;35.69;59.20;;
76382;Laerm;65202;52.520;10.528;2023-06-24T02:30:24;44.25;35.20;56.15;;
76382;Laerm;65202;52.520;10.528;2023-06-24T02:32:54;43.66;34.96;56.95;;
76382;Laerm;65202;52.520;10.528;2023-06-24T02:35:21;47.63;34.58;61.74;;
76382;Laerm;65202;52.520;10.528;2023-06-24T02:37:49;48.48;34.31;69.83;;
76382;Laerm;65202;52.520;10.528;2023-06-24T02:40:16;48.09;36.23;63.83;;
76382;Laerm;65202;52.520;10.528;2023-06-24T02:42:43;51.26;35.07;66.66;;
76382;Laerm;65202;52.520;10.528;2023-06-24T02:45:11;50.88;35.16;68.99;;
76382;Laerm;65202;52.520;10.528;2023-06-24T02:47:45;44.40;34.50;60.08;;
76382;Laerm;65202;52.520;10.528;2023-06-24T02:50:14;43.25;34.31;55.08;;
76382;Laerm;65202;52.520;10.528;2023-06-24T02:52:42;48.73;35.54;65.72;;
76382;Laerm;65202;52.520;10.528;2023-06-24T02:55:10;50.80;35.22;64.72;;
76382;Laerm;65202;52.520;10.528;2023-06-24T02:57:39;49.96;36.17;65.08;;
76382;Laerm;65202;52.520;10.528;2023-06-24T03:00:08;50.71;36.15;66.21;;
76382;Laerm;65202;52.520;10.528;2023-06-24T03:02:43;49.40;36.54;64.44;;
76382;Laerm;65202;52.520;10.528;2023-06-24T03:05:19;44.86;35.40;57.72;;
76382;Laerm;65202;52.520;10.528;2023-06-24T03:07:46;47.75;35.59;65.53;;
76382;Laerm;65202;52.520;10.528;2023-06-24T03:10:13;46.91;36.85;60.30;;
76382;Laerm;65202;52.520;10.528;2023-06-24T03:12:42;45.20;35.60;56.46;;
76382;Laerm;65202;52.520;10.528;2023-06-24T03:15:09;45.42;36.54;58.03;;
76382;Laerm;65202;52.520;10.528;2023-06-24T03:17:37;44.31;36.16;58.60;;
76382;Laerm;65202;52.520;10.528;2023-06-24T03:20:05;42.40;35.83;55.42;;
76382;Laerm;65202;52.520;10.528;2023-06-24T03:22:34;47.08;35.02;66.22;;
76382;Laerm;65202;52.520;10.528;2023-06-24T03:25:02;44.55;35.53;59.81;;
76382;Laerm;65202;52.520;10.528;2023-06-24T03:27:29;48.69;38.02;60.15;;
76382;Laerm;65202;52.520;10.528;2023-06-24T03:29:58;45.40;35.92;61.87;;
76382;Laerm;65202;52.520;10.528;2023-06-24T03:32:25;49.25;36.46;64.60;;
76382;Laerm;65202;52.520;10.528;2023-06-24T03:34:52;49.18;36.70;61.97;;
76382;Laerm;65202;52.520;10.528;2023-06-24T03:37:20;44.15;36.37;60.44;;
76382;Laerm;65202;52.520;10.528;2023-06-24T03:39:47;48.43;37.12;59.70;;
76382;Laerm;65202;52.520;10.528;2023-06-24T03:42:14;45.94;36.05;58.22;;
76382;Laerm;65202;52.520;10.528;2023-06-24T03:44:41;45.44;35.97;59.00;;
76382;Laerm;65202;52.520;10.528;2023-06-24T03:47:08;44.70;35.24;60.81;;
76382;Laerm;65202;52.520;10.528;2023-06-24T03:49:35;46.12;35.80;59.68;;
76382;Laerm;65202;52.520;10.528;2023-06-24T03:52:03;47.53;34.71;61.95;;
76382;Laerm;65202;52.520;10.528;2023-06-24T03:54:32;46.11;34.98;61.11;;
76382;Laerm;65202;52.520;10.528;2023-06-24T03:57:00;47.96;35.08;59.73;;
76382;Laerm;65202;52.520;10.528;2023-06-24T03:59:27;47.63;35.47;60.08;;
76382;Laerm;65202;52.520;10.528;2023-06-24T04:01:54;47.74;34.24;62.61;;
76382;Laerm;65202;52.520;10.528;2023-06-24T04:04:21;47.63;35.47;66.05;;
76382;Laerm;65202;52.520;10.528;2023-06-24T04:06:50;48.98;35.85;64.64;;
76382;Laerm;65202;52.520;10.528;2023-06-24T04:09:17;42.33;34.84;56.06;;
76382;Laerm;65202;52.520;10.528;2023-06-24T04:11:45;43.94;35.16;60.60;;
76382;Laerm;65202;52.520;10.528;2023-06-24T04:14:12;45.81;35.07;61.30;;
76382;Laerm;65202;52.520;10.528;2023-06-24T04:16:39;46.98;35.57;62.17;;
76382;Laerm;65202;52.520;10.528;2023-06-24T04:19:07;48.40;35.52;60.96;;
76382;Laerm;65202;52.520;10.528;2023-06-24T04:21:34;48.99;34.93;60.29;;
76382;Laerm;65202;52.520;10.528;2023-06-24T04:24:01;46.35;34.77;59.32;;
76382;Laerm;65202;52.520;10.528;2023-06-24T04:26:29;47.06;35.02;62.08;;
76382;Laerm;65202;52.520;10.528;2023-06-24T04:28:56;46.06;35.24;61.03;;
76382;Laerm;65202;52.520;10.528;2023-06-24T04:31:23;47.33;35.16;59.70;;
76382;Laerm;65202;52.520;10.528;2023-06-24T04:33:50;43.88;34.94;56.55;;
76382;Laerm;65202;52.520;10.528;2023-06-24T04:36:18;43.51;34.27;53.85;;
76382;Laerm;65202;52.520;10.528;2023-06-24T04:38:45;46.77;34.43;59.61;;
76382;Laerm;65202;52.520;10.528;2023-06-24T04:41:12;48.38;34.96;61.73;;
76382;Laerm;65202;52.520;10.528;2023-06-24T04:43:40;47.19;35.40;58.73;;
76382;Laerm;65202;52.520;10.528;2023-06-24T04:46:07;48.01;35.40;61.55;;
76382;Laerm;65202;52.520;10.528;2023-06-24T04:48:35;45.18;35.13;60.37;;
76382;Laerm;65202;52.520;10.528;2023-06-24T04:51:02;45.78;35.43;60.27;;
76382;Laerm;65202;52.520;10.528;2023-06-24T04:53:29;50.04;35.06;66.59;;
76382;Laerm;65202;52.520;10.528;2023-06-24T04:55:57;45.22;35.88;57.15;;
76382;Laerm;65202;52.520;10.528;2023-06-24T04:58:24;47.13;34.95;63.41;;
76382;Laerm;65202;52.520;10.528;2023-06-24T05:00:51;46.06;34.41;64.52;;
76382;Laerm;65202;52.520;10.528;2023-06-24T05:03:18;47.02;35.17;61.53;;
76382;Laerm;65202;52.520;10.528;2023-06-24T05:05:46;45.06;34.77;60.76;;
76382;Laerm;65202;52.520;10.528;2023-06-24T05:08:13;46.98;34.58;65.47;;
76382;Laerm;65202;52.520;10.528;2023-06-24T05:10:40;49.39;35.13;66.11;;
76382;Laerm;65202;52.520;10.528;2023-06-24T05:13:07;46.92;34.89;62.62;;
76382;Laerm;65202;52.520;10.528;2023-06-24T05:15:34;43.61;35.48;56.26;;
76382;Laerm;65202;52.520;10.528;2023-06-24T05:18:02;42.69;35.31;57.26;;
76382;Laerm;65202;52.520;10.528;2023-06-24T05:20:30;46.18;35.59;61.63;;
76382;Laerm;65202;52.520;10.528;2023-06-24T05:22:57;47.97;34.77;65.01;;
76382;Laerm;65202;52.520;10.528;2023-06-24T05:25:24;51.32;34.89;66.99;;
76382;Laerm;65202;52.520;10.528;2023-06-24T05:27:51;49.01;35.02;66.17;;
76382;Laerm;65202;52.520;10.528;2023-06-24T05:30:18;46.68;35.26;62.13;;
76382;Laerm;65202;52.520;10.528;2023-06-24T05:32:46;43.78;35.30;57.90;;
76382;Laerm;65202;52.520;10.528;2023-06-24T05:35:13;48.67;35.69;65.70;;
76382;Laerm;65202;52.520;10.528;2023-06-24T05:37:40;48.65;35.26;66.24;;
76382;Laerm;65202;52.520;10.528;2023-06-24T05:40:07;50.46;34.72;76.76;;
76382;Laerm;65202;52.520;10.528;2023-06-24T05:42:36;48.87;35.42;61.34;;
76382;Laerm;65202;52.520;10.528;2023-06-24T05:45:05;44.62;35.55;59.11;;
76382;Laerm;65202;52.520;10.528;2023-06-24T05:47:33;47.82;35.86;62.34;;
76382;Laerm;65202;52.520;10.528;2023-06-24T05:50:00;49.25;35.86;64.31;;
76382;Laerm;65202;52.520;10.528;2023-06-24T05:52:27;48.34;34.54;65.50;;
76382;Laerm;65202;52.520;10.528;2023-06-24T05:54:56;50.90;34.99;62.08;;
76382;Laerm;65202;52.520;10.528;2023-06-24T05:57:23;48.72;35.21;63.80;;
76382;Laerm;65202;52.520;10.528;2023-06-24T05:59:50;46.74;34.97;61.46;;
76382;Laerm;65202;52.520;10.528;2023-06-24T06:02:17;46.31;34.90;61.76;;
76382;Laerm;65202;52.520;10.528;2023-06-24T06:04:45;46.01;34.45;62.86;;
76382;Laerm;65202;52.520;10.528;2023-06-24T06:07:12;44.92;34.31;72.23;;
76382;Laerm;65202;52.520;10.528;2023-06-24T06:09:39;43.05;34.53;60.50;;
76382;Laerm;65202;52.520;10.528;2023-06-24T06:12:07;45.86;35.86;58.64;;
76382;Laerm;65202;52.520;10.528;2023-06-24T06:14:35;49.93;39.08;62.36;;
76382;Laerm;65202;52.520;10.528;2023-06-24T06:17:02;44.15;35.32;62.47;;
76382;Laerm;65202;52.520;10.528;2023-06-24T06:19:30;46.19;36.09;70.14;;
76382;Laerm;65202;52.520;10.528;2023-06-24T06:21:57;49.20;36.63;63.10;;
76382;Laerm;65202;52.520;10.528;2023-06-24T06:24:24;43.41;35.50;59.04;;
76382;Laerm;65202;52.520;10.528;2023-06-24T06:26:51;48.90;35.69;65.51;;
76382;Laerm;65202;52.520;10.528;2023-06-24T06:29:19;47.13;35.11;62.31;;
76382;Laerm;65202;52.520;10.528;2023-06-24T06:31:46;48.18;36.03;73.86;;
76382;Laerm;65202;52.520;10.528;2023-06-24T06:34:13;49.05;35.56;63.56;;
76382;Laerm;65202;52.520;10.528;2023-06-24T06:36:40;44.45;35.57;57.44;;
76382;Laerm;65202;52.520;10.528;2023-06-24T06:39:07;46.22;35.63;59.45;;
76382;Laerm;65202;52.520;10.528;2023-06-24T06:41:35;47.82;36.27;62.61;;
76382;Laerm;65202;52.520;10.528;2023-06-24T06:44:02;46.02;35.36;61.80;;
76382;Laerm;65202;52.520;10.528;2023-06-24T06:46:30;49.79;36.57;66.23;;
76382;Laerm;65202;52.520;10.528;2023-06-24T06:48:58;44.82;35.95;57.63;;
76382;Laerm;65202;52.520;10.528;2023-06-24T06:51:26;48.88;36.44;62.62;;
76382;Laerm;65202;52.520;10.528;2023-06-24T06:53:54;48.25;36.36;61.35;;
76382;Laerm;65202;52.520;10.528;2023-06-24T06:56:25;48.78;36.10;61.77;;
76382;Laerm;65202;52.520;10.528;2023-06-24T06:58:52;51.19;37.27;65.56;;
76382;Laerm;65202;52.520;10.528;2023-06-24T07:01:20;49.63;36.70;66.01;;
76382;Laerm;65202;52.520;10.528;2023-06-24T07:03:49;50.46;36.61;66.34;;
76382;Laerm;65202;52.520;10.528;2023-06-24T07:06:20;48.98;36.54;64.85;;
76382;Laerm;65202;52.520;10.528;2023-06-24T07:08:47;50.98;36.28;64.62;;
76382;Laerm;65202;52.520;10.528;2023-06-24T07:11:14;51.40;36.94;65.58;;
76382;Laerm;65202;52.520;10.528;2023-06-24T07:13:42;45.73;36.29;64.96;;
76382;Laerm;65202;52.520;10.528;2023-06-24T07:16:09;48.61;37.58;62.43;;
76382;Laerm;65202;52.520;10.528;2023-06-24T07:18:36;49.94;37.63;62.28;;
76382;Laerm;65202;52.520;10.528;2023-06-24T07:21:03;49.62;36.13;62.94;;
76382;Laerm;65202;52.520;10.528;2023-06-24T07:23:30;51.83;36.79;65.75;;
76382;Laerm;65202;52.520;10.528;2023-06-24T07:25:58;50.37;37.64;64.08;;
76382;Laerm;65202;52.520;10.528;2023-06-24T07:28:29;47.02;37.18;61.58;;
76382;Laerm;65202;52.520;10.528;2023-06-24T07:30:57;49.39;36.89;67.81;;
76382;Laerm;65202;52.520;10.528;2023-06-24T07:33:24;45.18;36.70;59.47;;
76382;Laerm;65202;52.520;10.528;2023-06-24T07:35:51;50.50;36.51;69.53;;
76382;Laerm;65202;52.520;10.528;2023-06-24T07:38:19;51.31;37.94;61.71;;
76382;Laerm;65202;52.520;10.528;2023-06-24T07:40:46;48.09;37.62;59.39;;
76382;Laerm;65202;52.520;10.528;2023-06-24T07:43:14;53.73;37.33;71.34;;
76382;Laerm;65202;52.520;10.528;2023-06-24T07:45:41;43.49;37.25;54.27;;
76382;Laerm;65202;52.520;10.528;2023-06-24T07:48:08;46.80;36.59;73.86;;
76382;Laerm;65202;52.520;10.528;2023-06-24T07:50:36;49.60;36.45;67.28;;
76382;Laerm;65202;52.520;10.528;2023-06-24T07:53:03;51.43;37.01;63.56;;
76382;Laerm;65202;52.520;10.528;2023-06-24T07:55:30;48.36;36.59;60.48;;
76382;Laerm;65202;52.520;10.528;2023-06-24T07:57:57;47.68;36.30;61.49;;
76382;Laerm;65202;52.520;10.528;2023-06-24T08:00:25;49.47;36.75;64.10;;
76382;Laerm;65202;52.520;10.528;2023-06-24T08:02:52;45.80;35.90;62.52;;
76382;Laerm;65202;52.520;10.528;2023-06-24T08:05:22;46.09;35.99;59.17;;
76382;Laerm;65202;52.520;10.528;2023-06-24T08:07:52;44.12;36.26;56.21;;
76382;Laerm;65202;52.520;10.528;2023-06-24T08:10:20;47.81;37.40;69.87;;
76382;Laerm;65202;52.520;10.528;2023-06-24T08:12:47;52.19;37.77;68.34;;
76382;Laerm;65202;52.520;10.528;2023-06-24T08:15:14;49.92;36.83;63.77;;
76382;Laerm;65202;52.520;10.528;2023-06-24T08:17:41;49.48;37.33;63.62;;
76382;Laerm;65202;52.520;10.528;2023-06-24T08:20:09;46.88;37.08;61.95;;
76382;Laerm;65202;52.520;10.528;2023-06-24T08:22:37;46.48;37.90;59.18;;
76382;Laerm;65202;52.520;10.528;2023-06-24T08:25:04;49.49;37.97;63.40;;
76382;Laerm;65202;52.520;10.528;2023-06-24T08:27:32;47.60;38.07;59.89;;
76382;Laerm;65202;52.520;10.528;2023-06-24T08:29:59;49.46;36.50;69.92;;
76382;Laerm;65202;52.520;10.528;2023-06-24T08:32:27;45.10;36.75;56.72;;
76382;Laerm;65202;52.520;10.528;2023-06-24T08:34:54;47.80;36.58;60.30;;
76382;Laerm;65202;52.520;10.528;2023-06-24T08:37:21;50.12;36.86;64.03;;
76382;Laerm;65202;52.520;10.528;2023-06-24T08:39:49;48.91;36.49;63.26;;
76382;Laerm;65202;52.520;10.528;2023-06-24T08:42:16;50.70;37.25;63.15;;
76382;Laerm;65202;52.520;10.528;2023-06-24T08:44:43;50.88;37.12;60.61;;
76382;Laerm;65202;52.520;10.528;2023-06-24T08:47:11;51.60;36.88;65.28;;
76382;Laerm;65202;52.520;10.528;2023-06-24T08:49:47;49.78;36.78;63.75;;
76382;Laerm;65202;52.520;10.528;2023-06-24T08:52:18;48.51;37.25;60.05;;
76382;Laerm;65202;52.520;10.528;2023-06-24T08:54:51;46.15;36.91;62.18;;
76382;Laerm;65202;52.520;10.528;2023-06-24T08:57:23;48.30;37.24;67.23;;
76382;Laerm;65202;52.520;10.528;2023-06-24T08:59:50;50.72;37.01;67.05;;
76382;Laerm;65202;52.520;10.528;2023-06-24T09:02:18;46.90;36.64;61.49;;
76382;Laerm;65202;52.520;10.528;2023-06-24T09:04:45;50.46;37.01;65.55;;
76382;Laerm;65202;52.520;10.528;2023-06-24T09:07:13;48.65;36.92;67.12;;
76382;Laerm;65202;52.520;10.528;2023-06-24T09:09:44;48.87;36.97;59.13;;
76382;Laerm;65202;52.520;10.528;2023-06-24T09:12:14;53.28;40.13;71.08;;
76382;Laerm;65202;52.520;10.528;2023-06-24T09:14:48;54.10;38.28;69.27;;
76382;Laerm;65202;52.520;10.528;2023-06-24T09:17:17;49.10;38.98;59.04;;
76382;Laerm;65202;52.520;10.528;2023-06-24T09:19:44;50.53;39.38;66.84;;
76382;Laerm;65202;52.520;10.528;2023-06-24T09:22:11;50.16;37.82;65.00;;
76382;Laerm;65202;52.520;10.528;2023-06-24T09:24:45;50.66;38.94;65.46;;
76382;Laerm;65202;52.520;10.528;2023-06-24T09:27:15;48.00;38.32;73.71;;
76382;Laerm;65202;52.520;10.528;2023-06-24T09:29:44;49.01;38.92;63.28;;
76382;Laerm;65202;52.520;10.528;2023-06-24T09:32:11;48.98;37.76;65.96;;
76382;Laerm;65202;52.520;10.528;2023-06-24T09:34:39;48.50;38.33;64.63;;
76382;Laerm;65202;52.520;10.528;2023-06-24T09:37:06;45.48;36.74;58.65;;
76382;Laerm;65202;52.520;10.528;2023-06-24T09:39:39;46.51;37.08;65.65;;
76382;Laerm;65202;52.520;10.528;2023-06-24T09:42:10;45.21;37.11;55.43;;
76382;Laerm;65202;52.520;10.528;2023-06-24T09:44:38;48.01;36.82;64.30;;
76382;Laerm;65202;52.520;10.528;2023-06-24T09:47:06;49.40;37.68;63.04;;
76382;Laerm;65202;52.520;10.528;2023-06-24T09:49:33;47.83;36.19;61.58;;
76382;Laerm;65202;52.520;10.528;2023-06-24T09:52:04;44.44;36.99;61.23;;
76382;Laerm;65202;52.520;10.528;2023-06-24T09:54:34;49.48;36.66;75.24;;
76382;Laerm;65202;52.520;10.528;2023-06-24T09:57:03;48.05;36.23;67.14;;
76382;Laerm;65202;52.520;10.528;2023-06-24T09:59:33;48.03;36.56;67.71;;
76382;Laerm;65202;52.520;10.528;2023-06-24T10:02:02;53.56;37.39;77.43;;
76382;Laerm;65202;52.520;10.528;2023-06-24T10:04:31;52.78;37.56;72.30;;
76382;Laerm;65202;52.520;10.528;2023-06-24T10:07:02;55.29;38.71;78.53;;
76382;Laerm;65202;52.520;10.528;2023-06-24T10:09:30;48.84;37.47;65.53;;
76382;Laerm;65202;52.520;10.528;2023-06-24T10:11:57;51.67;38.41;65.53;;
76382;Laerm;65202;52.520;10.528;2023-06-24T10:14:25;55.69;39.49;69.99;;
76382;Laerm;65202;52.520;10.528;2023-06-24T10:17:02;50.87;36.81;67.43;;
76382;Laerm;65202;52.520;10.528;2023-06-24T10:19:29;47.23;36.54;67.00;;
76382;Laerm;65202;52.520;10.528;2023-06-24T10:22:00;50.24;36.38;68.89;;
76382;Laerm;65202;52.520;10.528;2023-06-24T10:24:35;44.80;36.10;62.04;;
76382;Laerm;65202;52.520;10.528;2023-06-24T10:27:09;48.63;35.45;72.65;;
76382;Laerm;65202;52.520;10.528;2023-06-24T10:29:46;46.03;36.85;64.13;;
76382;Laerm;65202;52.520;10.528;2023-06-24T10:32:14;49.10;36.54;67.42;;
76382;Laerm;65202;52.520;10.528;2023-06-24T10:34:54;47.89;37.27;64.96;;
76382;Laerm;65202;52.520;10.528;2023-06-24T10:37:26;60.31;36.62;82.10;;
76382;Laerm;65202;52.520;10.528;2023-06-24T10:40:00;61.08;36.20;89.27;;
76382;Laerm;65202;52.520;10.528;2023-06-24T10:42:41;50.62;36.14;67.50;;
76382;Laerm;65202;52.520;10.528;2023-06-24T10:45:19;51.62;36.22;67.78;;
76382;Laerm;65202;52.520;10.528;2023-06-24T10:47:51;50.95;35.68;66.86;;
76382;Laerm;65202;52.520;10.528;2023-06-24T10:50:26;52.39;37.05;64.91;;
76382;Laerm;65202;52.520;10.528;2023-06-24T10:52:54;49.45;37.51;63.49;;
76382;Laerm;65202;52.520;10.528;2023-06-24T10:55:25;46.52;35.68;57.48;;
76382;Laerm;65202;52.520;10.528;2023-06-24T10:57:53;47.62;37.08;65.11;;
76382;Laerm;65202;52.520;10.528;2023-06-24T11:00:21;50.36;36.40;69.04;;
76382;Laerm;65202;52.520;10.528;2023-06-24T11:02:49;48.09;37.02;63.23;;
76382;Laerm;65202;52.520;10.528;2023-06-24T11:05:17;48.71;36.16;64.48;;
76382;Laerm;65202;52.520;10.528;2023-06-24T11:07:44;49.73;35.92;65.80;;
76382;Laerm;65202;52.520;10.528;2023-06-24T11:10:14;55.95;37.54;76.65;;
76382;Laerm;65202;52.520;10.528;2023-06-24T11:12:43;55.48;37.11;74.15;;
76382;Laerm;65202;52.520;10.528;2023-06-24T11:15:13;51.65;36.74;69.11;;
76382;Laerm;65202;52.520;10.528;2023-06-24T11:17:41;52.18;37.10;67.08;;
76382;Laerm;65202;52.520;10.528;2023-06-24T11:20:13;50.62;36.16;64.64;;
76382;Laerm;65202;52.520;10.528;2023-06-24T11:22:42;54.06;37.79;85.98;;
76382;Laerm;65202;52.520;10.528;2023-06-24T11:25:20;49.72;38.33;63.23;;
76382;Laerm;65202;52.520;10.528;2023-06-24T11:27:51;51.25;36.61;63.01;;
76382;Laerm;65202;52.520;10.528;2023-06-24T11:30:21;49.80;37.66;63.16;;
76382;Laerm;65202;52.520;10.528;2023-06-24T11:32:48;48.29;36.93;67.51;;
76382;Laerm;65202;52.520;10.528;2023-06-24T11:35:17;46.16;36.22;58.33;;
76382;Laerm;65202;52.520;10.528;2023-06-24T11:37:47;49.62;36.45;73.27;;
76382;Laerm;65202;52.520;10.528;2023-06-24T11:40:19;48.27;36.79;64.21;;
76382;Laerm;65202;52.520;10.528;2023-06-24T11:42:48;45.78;36.51;58.38;;
76382;Laerm;65202;52.520;10.528;2023-06-24T11:45:21;47.07;37.30;60.32;;
76382;Laerm;65202;52.520;10.528;2023-06-24T11:47:48;47.30;36.76;60.52;;
76382;Laerm;65202;52.520;10.528;2023-06-24T11:50:16;47.62;36.97;62.25;;
76382;Laerm;65202;52.520;10.528;2023-06-24T11:52:49;47.92;36.19;61.10;;
76382;Laerm;65202;52.520;10.528;2023-06-24T11:55:19;48.28;36.42;70.00;;
76382;Laerm;65202;52.520;10.528;2023-06-24T11:58:03;52.34;36.90;69.83;;
76382;Laerm;65202;52.520;10.528;2023-06-24T12:00:40;51.04;37.45;66.96;;
76382;Laerm;65202;52.520;10.528;2023-06-24T12:03:10;51.09;38.15;67.08;;
76382;Laerm;65202;52.520;10.528;2023-06-24T12:05:39;47.28;37.33;62.37;;
76382;Laerm;65202;52.520;10.528;2023-06-24T12:08:13;50.84;37.49;65.69;;
76382;Laerm;65202;52.520;10.528;2023-06-24T12:10:45;46.78;38.41;62.07;;
76382;Laerm;65202;52.520;10.528;2023-06-24T12:13:13;49.85;36.72;67.56;;
76382;Laerm;65202;52.520;10.528;2023-06-24T12:15:41;47.18;38.42;58.40;;
76382;Laerm;65202;52.520;10.528;2023-06-24T12:18:08;49.35;38.36;63.69;;
76382;Laerm;65202;52.520;10.528;2023-06-24T12:20:36;47.82;38.42;60.22;;
76382;Laerm;65202;52.520;10.528;2023-06-24T12:23:06;50.99;36.38;66.94;;
76382;Laerm;65202;52.520;10.528;2023-06-24T12:25:33;49.36;36.72;61.96;;
76382;Laerm;65202;52.520;10.528;2023-06-24T12:28:00;46.31;37.32;58.97;;
76382;Laerm;65202;52.520;10.528;2023-06-24T12:30:28;52.90;37.10;66.94;;
76382;Laerm;65202;52.520;10.528;2023-06-24T12:32:55;50.78;37.04;67.33;;
76382;Laerm;65202;52.520;10.528;2023-06-24T12:35:23;47.19;36.50;61.94;;
76382;Laerm;65202;52.520;10.528;2023-06-24T12:37:54;49.71;40.09;61.32;;
76382;Laerm;65202;52.520;10.528;2023-06-24T12:40:21;48.82;37.54;64.23;;
76382;Laerm;65202;52.520;10.528;2023-06-24T12:42:48;47.64;37.55;64.60;;
76382;Laerm;65202;52.520;10.528;2023-06-24T12:45:16;48.55;38.97;63.23;;
76382;Laerm;65202;52.520;10.528;2023-06-24T12:47:43;47.60;42.05;58.40;;
76382;Laerm;65202;52.520;10.528;2023-06-24T12:50:10;47.80;37.53;58.52;;
76382;Laerm;65202;52.520;10.528;2023-06-24T12:52:38;50.55;36.46;67.36;;
76382;Laerm;65202;52.520;10.528;2023-06-24T12:55:06;49.05;40.02;67.45;;
76382;Laerm;65202;52.520;10.528;2023-06-24T12:57:36;50.43;41.56;66.11;;
76382;Laerm;65202;52.520;10.528;2023-06-24T13:00:07;47.92;37.73;63.70;;
76382;Laerm;65202;52.520;10.528;2023-06-24T13:02:35;50.99;37.63;66.08;;
76382;Laerm;65202;52.520;10.528;2023-06-24T13:05:03;46.86;36.92;63.89;;
76382;Laerm;65202;52.520;10.528;2023-06-24T13:07:31;45.72;37.15;58.44;;
76382;Laerm;65202;52.520;10.528;2023-06-24T13:10:00;49.70;37.97;63.02;;
76382;Laerm;65202;52.520;10.528;2023-06-24T13:12:28;48.43;38.06;61.09;;
76382;Laerm;65202;52.520;10.528;2023-06-24T13:14:55;48.88;37.46;61.78;;
76382;Laerm;65202;52.520;10.528;2023-06-24T13:17:23;48.40;35.86;60.02;;
76382;Laerm;65202;52.520;10.528;2023-06-24T13:19:51;46.59;36.34;65.12;;
76382;Laerm;65202;52.520;10.528;2023-06-24T13:22:18;46.75;38.91;56.31;;
76382;Laerm;65202;52.520;10.528;2023-06-24T13:24:46;50.40;39.42;67.20;;
76382;Laerm;65202;52.520;10.528;2023-06-24T13:27:13;49.82;37.94;68.35;;
76382;Laerm;65202;52.520;10.528;2023-06-24T13:29:40;49.24;39.48;63.83;;
76382;Laerm;65202;52.520;10.528;2023-06-24T13:32:08;58.22;39.78;72.76;;
76382;Laerm;65202;52.520;10.528;2023-06-24T13:34:35;51.68;39.81;68.60;;
76382;Laerm;65202;52.520;10.528;2023-06-24T13:37:03;46.01;37.95;54.58;;
76382;Laerm;65202;52.520;10.528;2023-06-24T13:39:30;50.18;40.05;69.62;;
76382;Laerm;65202;52.520;10.528;2023-06-24T13:41:59;48.53;39.60;63.88;;
76382;Laerm;65202;52.520;10.528;2023-06-24T13:44:27;45.25;36.93;56.52;;
76382;Laerm;65202;52.520;10.528;2023-06-24T13:46:54;46.61;39.33;62.58;;
76382;Laerm;65202;52.520;10.528;2023-06-24T13:49:22;45.49;39.12;56.36;;